Jacksonville NAS, Florida
Current Conditions -  °F | °C
As of 8:53 PM on Saturday 22 Nov 2014 (Local Time) from KNIP Reporting Station
Overcast Overcast  
Wind Chill: 71°   Ceiling: 5000
Heat Index: 71°   Visibility: 10mi
Dew Point: 61°   Wind: 16mph
Humidity: 70%   Direction: 100°E
Pressure: 30.18"   Gusts: NA
Location:  30.23°N, 81.68°W
Report Text: KNIP 230153Z 10014KT 10SM SCT031 OVC050 22/16 A3018 RMK AO2 SLP216 T02170161
Loading
Personal Weather Stations






























Interactive Weather Map New forecast layout! Learn more

10-Day Weather Forecast

Advertisements
Track Severe Weather on mobile